sensor_id;sensor_type;location;lat;lon;timestamp;P1;durP1;ratioP1;P2;durP2;ratioP2
16837;SDS011;19510;54.486;9.046;2023-07-31T00:00:14;8.82;;;1.70;;
16837;SDS011;19510;54.486;9.046;2023-07-31T00:02:41;8.32;;;1.70;;
16837;SDS011;19510;54.486;9.046;2023-07-31T00:05:08;9.07;;;1.90;;
16837;SDS011;19510;54.486;9.046;2023-07-31T00:07:34;5.65;;;1.42;;
16837;SDS011;19510;54.486;9.046;2023-07-31T00:10:00;10.60;;;1.63;;
16837;SDS011;19510;54.486;9.046;2023-07-31T00:12:26;8.23;;;1.40;;
16837;SDS011;19510;54.486;9.046;2023-07-31T00:14:54;8.15;;;1.90;;
16837;SDS011;19510;54.486;9.046;2023-07-31T00:17:19;6.38;;;1.20;;
16837;SDS011;19510;54.486;9.046;2023-07-31T00:19:45;4.28;;;1.10;;
16837;SDS011;19510;54.486;9.046;2023-07-31T00:22:11;6.82;;;1.92;;
16837;SDS011;19510;54.486;9.046;2023-07-31T00:24:37;3.60;;;1.20;;
16837;SDS011;19510;54.486;9.046;2023-07-31T00:27:03;6.60;;;1.35;;
16837;SDS011;19510;54.486;9.046;2023-07-31T00:29:29;7.35;;;1.77;;
16837;SDS011;19510;54.486;9.046;2023-07-31T00:31:55;5.82;;;1.50;;
16837;SDS011;19510;54.486;9.046;2023-07-31T00:34:22;4.63;;;1.30;;
16837;SDS011;19510;54.486;9.046;2023-07-31T00:36:48;4.43;;;1.30;;
16837;SDS011;19510;54.486;9.046;2023-07-31T00:39:13;6.70;;;1.45;;
16837;SDS011;19510;54.486;9.046;2023-07-31T00:41:39;8.52;;;1.60;;
16837;SDS011;19510;54.486;9.046;2023-07-31T00:44:05;8.10;;;1.70;;
16837;SDS011;19510;54.486;9.046;2023-07-31T00:46:31;6.38;;;1.83;;
16837;SDS011;19510;54.486;9.046;2023-07-31T00:48:57;8.48;;;1.75;;
16837;SDS011;19510;54.486;9.046;2023-07-31T00:51:24;5.18;;;1.35;;
16837;SDS011;19510;54.486;9.046;2023-07-31T00:53:50;7.32;;;1.60;;
16837;SDS011;19510;54.486;9.046;2023-07-31T00:56:20;10.38;;;1.80;;
16837;SDS011;19510;54.486;9.046;2023-07-31T00:58:46;8.63;;;2.10;;
16837;SDS011;19510;54.486;9.046;2023-07-31T01:01:11;7.63;;;2.08;;
16837;SDS011;19510;54.486;9.046;2023-07-31T01:03:37;7.80;;;1.80;;
16837;SDS011;19510;54.486;9.046;2023-07-31T01:06:29;10.68;;;2.10;;
16837;SDS011;19510;54.486;9.046;2023-07-31T01:12:14;8.48;;;1.88;;
16837;SDS011;19510;54.486;9.046;2023-07-31T01:14:50;7.13;;;2.50;;
16837;SDS011;19510;54.486;9.046;2023-07-31T01:17:17;11.00;;;2.33;;
16837;SDS011;19510;54.486;9.046;2023-07-31T01:19:42;6.85;;;2.00;;
16837;SDS011;19510;54.486;9.046;2023-07-31T01:22:17;5.47;;;1.65;;
16837;SDS011;19510;54.486;9.046;2023-07-31T01:27:39;4.63;;;1.73;;
16837;SDS011;19510;54.486;9.046;2023-07-31T01:30:16;8.48;;;2.15;;
16837;SDS011;19510;54.486;9.046;2023-07-31T01:32:47;7.18;;;1.98;;
16837;SDS011;19510;54.486;9.046;2023-07-31T01:35:14;6.60;;;1.92;;
16837;SDS011;19510;54.486;9.046;2023-07-31T01:37:40;5.57;;;1.90;;
16837;SDS011;19510;54.486;9.046;2023-07-31T01:40:06;8.95;;;1.98;;
16837;SDS011;19510;54.486;9.046;2023-07-31T01:42:33;10.98;;;2.33;;
16837;SDS011;19510;54.486;9.046;2023-07-31T01:44:58;9.80;;;2.55;;
16837;SDS011;19510;54.486;9.046;2023-07-31T01:47:24;6.53;;;2.42;;
16837;SDS011;19510;54.486;9.046;2023-07-31T01:49:52;8.27;;;2.78;;
16837;SDS011;19510;54.486;9.046;2023-07-31T01:52:17;6.63;;;1.85;;
16837;SDS011;19510;54.486;9.046;2023-07-31T01:54:43;10.98;;;2.28;;
16837;SDS011;19510;54.486;9.046;2023-07-31T01:57:09;7.40;;;2.35;;
16837;SDS011;19510;54.486;9.046;2023-07-31T01:59:34;9.65;;;2.05;;
16837;SDS011;19510;54.486;9.046;2023-07-31T02:02:00;7.93;;;2.65;;
16837;SDS011;19510;54.486;9.046;2023-07-31T02:04:26;6.55;;;2.03;;
16837;SDS011;19510;54.486;9.046;2023-07-31T02:06:52;4.85;;;1.77;;
16837;SDS011;19510;54.486;9.046;2023-07-31T02:09:18;7.90;;;2.13;;
16837;SDS011;19510;54.486;9.046;2023-07-31T02:11:43;5.63;;;1.70;;
16837;SDS011;19510;54.486;9.046;2023-07-31T02:14:09;7.13;;;1.63;;
16837;SDS011;19510;54.486;9.046;2023-07-31T02:16:35;6.88;;;1.80;;
16837;SDS011;19510;54.486;9.046;2023-07-31T02:19:00;9.40;;;1.60;;
16837;SDS011;19510;54.486;9.046;2023-07-31T02:21:26;6.28;;;2.55;;
16837;SDS011;19510;54.486;9.046;2023-07-31T02:23:52;8.98;;;1.70;;
16837;SDS011;19510;54.486;9.046;2023-07-31T02:26:17;8.77;;;1.83;;
16837;SDS011;19510;54.486;9.046;2023-07-31T02:28:43;16.52;;;2.60;;
16837;SDS011;19510;54.486;9.046;2023-07-31T02:31:09;4.88;;;1.40;;
16837;SDS011;19510;54.486;9.046;2023-07-31T02:33:36;9.38;;;2.97;;
16837;SDS011;19510;54.486;9.046;2023-07-31T02:36:01;6.72;;;2.47;;
16837;SDS011;19510;54.486;9.046;2023-07-31T02:38:27;9.20;;;1.88;;
16837;SDS011;19510;54.486;9.046;2023-07-31T02:40:52;9.20;;;1.70;;
16837;SDS011;19510;54.486;9.046;2023-07-31T02:43:18;4.72;;;1.60;;
16837;SDS011;19510;54.486;9.046;2023-07-31T02:45:44;6.25;;;1.90;;
16837;SDS011;19510;54.486;9.046;2023-07-31T02:48:09;5.50;;;1.80;;
16837;SDS011;19510;54.486;9.046;2023-07-31T02:50:35;5.63;;;1.70;;
16837;SDS011;19510;54.486;9.046;2023-07-31T02:53:01;4.15;;;1.60;;
16837;SDS011;19510;54.486;9.046;2023-07-31T02:55:26;6.20;;;2.10;;
16837;SDS011;19510;54.486;9.046;2023-07-31T02:57:52;10.10;;;1.80;;
16837;SDS011;19510;54.486;9.046;2023-07-31T03:00:18;9.75;;;2.00;;
16837;SDS011;19510;54.486;9.046;2023-07-31T03:02:44;8.55;;;2.63;;
16837;SDS011;19510;54.486;9.046;2023-07-31T03:05:10;5.78;;;1.75;;
16837;SDS011;19510;54.486;9.046;2023-07-31T03:07:35;8.88;;;1.80;;
16837;SDS011;19510;54.486;9.046;2023-07-31T03:10:01;13.07;;;3.28;;
16837;SDS011;19510;54.486;9.046;2023-07-31T03:12:27;4.35;;;2.13;;
16837;SDS011;19510;54.486;9.046;2023-07-31T03:14:52;5.75;;;2.03;;
16837;SDS011;19510;54.486;9.046;2023-07-31T03:17:18;8.15;;;1.80;;
16837;SDS011;19510;54.486;9.046;2023-07-31T03:19:44;7.90;;;2.20;;
16837;SDS011;19510;54.486;9.046;2023-07-31T03:22:12;8.85;;;2.15;;
16837;SDS011;19510;54.486;9.046;2023-07-31T03:24:38;5.82;;;1.92;;
16837;SDS011;19510;54.486;9.046;2023-07-31T03:27:03;11.68;;;1.80;;
16837;SDS011;19510;54.486;9.046;2023-07-31T03:29:29;7.45;;;1.90;;
16837;SDS011;19510;54.486;9.046;2023-07-31T03:31:55;6.40;;;2.55;;
16837;SDS011;19510;54.486;9.046;2023-07-31T03:34:21;3.05;;;1.60;;
16837;SDS011;19510;54.486;9.046;2023-07-31T03:36:47;6.15;;;1.77;;
16837;SDS011;19510;54.486;9.046;2023-07-31T03:39:13;4.03;;;1.35;;
16837;SDS011;19510;54.486;9.046;2023-07-31T03:41:39;3.08;;;1.45;;
16837;SDS011;19510;54.486;9.046;2023-07-31T03:44:05;3.15;;;1.50;;
16837;SDS011;19510;54.486;9.046;2023-07-31T03:46:31;5.85;;;1.90;;
16837;SDS011;19510;54.486;9.046;2023-07-31T03:48:57;6.70;;;2.10;;
16837;SDS011;19510;54.486;9.046;2023-07-31T03:51:22;5.93;;;1.92;;
16837;SDS011;19510;54.486;9.046;2023-07-31T03:53:48;7.55;;;1.85;;
16837;SDS011;19510;54.486;9.046;2023-07-31T03:56:14;6.35;;;1.95;;
16837;SDS011;19510;54.486;9.046;2023-07-31T03:58:40;8.43;;;2.67;;
16837;SDS011;19510;54.486;9.046;2023-07-31T04:01:05;8.32;;;3.20;;
16837;SDS011;19510;54.486;9.046;2023-07-31T04:03:31;8.23;;;2.95;;
16837;SDS011;19510;54.486;9.046;2023-07-31T04:05:57;10.82;;;3.70;;
16837;SDS011;19510;54.486;9.046;2023-07-31T04:08:23;6.45;;;2.80;;
16837;SDS011;19510;54.486;9.046;2023-07-31T04:10:48;12.50;;;3.33;;
16837;SDS011;19510;54.486;9.046;2023-07-31T04:13:14;8.85;;;2.85;;
16837;SDS011;19510;54.486;9.046;2023-07-31T04:15:42;11.30;;;2.75;;
16837;SDS011;19510;54.486;9.046;2023-07-31T04:18:12;11.18;;;3.42;;
16837;SDS011;19510;54.486;9.046;2023-07-31T04:20:38;14.50;;;3.58;;
16837;SDS011;19510;54.486;9.046;2023-07-31T04:23:04;9.95;;;3.25;;
16837;SDS011;19510;54.486;9.046;2023-07-31T04:25:29;10.85;;;3.38;;
16837;SDS011;19510;54.486;9.046;2023-07-31T04:27:56;9.15;;;3.08;;
16837;SDS011;19510;54.486;9.046;2023-07-31T04:30:22;8.50;;;3.28;;
16837;SDS011;19510;54.486;9.046;2023-07-31T04:32:48;11.75;;;3.00;;
16837;SDS011;19510;54.486;9.046;2023-07-31T04:35:14;6.90;;;2.95;;
16837;SDS011;19510;54.486;9.046;2023-07-31T04:37:39;9.98;;;2.50;;
16837;SDS011;19510;54.486;9.046;2023-07-31T04:40:05;5.90;;;2.60;;
16837;SDS011;19510;54.486;9.046;2023-07-31T04:42:31;7.15;;;2.35;;
16837;SDS011;19510;54.486;9.046;2023-07-31T04:44:57;8.77;;;2.30;;
16837;SDS011;19510;54.486;9.046;2023-07-31T04:47:23;7.07;;;2.72;;
16837;SDS011;19510;54.486;9.046;2023-07-31T04:49:48;7.45;;;2.92;;
16837;SDS011;19510;54.486;9.046;2023-07-31T04:52:16;7.03;;;2.90;;
16837;SDS011;19510;54.486;9.046;2023-07-31T04:54:42;7.18;;;2.70;;
16837;SDS011;19510;54.486;9.046;2023-07-31T04:57:07;7.55;;;2.60;;
16837;SDS011;19510;54.486;9.046;2023-07-31T04:59:33;7.80;;;2.35;;
16837;SDS011;19510;54.486;9.046;2023-07-31T05:01:59;5.20;;;2.38;;
16837;SDS011;19510;54.486;9.046;2023-07-31T05:04:24;10.27;;;3.85;;
16837;SDS011;19510;54.486;9.046;2023-07-31T05:06:50;9.02;;;2.95;;
16837;SDS011;19510;54.486;9.046;2023-07-31T05:09:16;11.25;;;2.38;;
16837;SDS011;19510;54.486;9.046;2023-07-31T05:11:42;6.90;;;2.65;;
16837;SDS011;19510;54.486;9.046;2023-07-31T05:14:08;5.05;;;2.35;;
16837;SDS011;19510;54.486;9.046;2023-07-31T05:16:34;8.23;;;2.60;;
16837;SDS011;19510;54.486;9.046;2023-07-31T05:18:59;8.32;;;2.58;;
16837;SDS011;19510;54.486;9.046;2023-07-31T05:21:27;5.82;;;1.98;;
16837;SDS011;19510;54.486;9.046;2023-07-31T05:23:53;6.35;;;2.47;;
16837;SDS011;19510;54.486;9.046;2023-07-31T05:26:19;7.38;;;1.90;;
16837;SDS011;19510;54.486;9.046;2023-07-31T05:28:45;5.90;;;2.05;;
16837;SDS011;19510;54.486;9.046;2023-07-31T05:31:10;10.75;;;2.33;;
16837;SDS011;19510;54.486;9.046;2023-07-31T05:33:36;2.60;;;1.58;;
16837;SDS011;19510;54.486;9.046;2023-07-31T05:36:02;3.95;;;2.30;;
16837;SDS011;19510;54.486;9.046;2023-07-31T05:38:27;7.65;;;1.77;;
16837;SDS011;19510;54.486;9.046;2023-07-31T05:40:53;8.05;;;1.98;;
16837;SDS011;19510;54.486;9.046;2023-07-31T05:43:21;2.88;;;1.80;;
16837;SDS011;19510;54.486;9.046;2023-07-31T05:45:47;6.18;;;2.08;;
16837;SDS011;19510;54.486;9.046;2023-07-31T05:48:12;5.07;;;1.95;;
16837;SDS011;19510;54.486;9.046;2023-07-31T05:50:38;5.45;;;2.00;;
16837;SDS011;19510;54.486;9.046;2023-07-31T05:53:05;4.32;;;1.55;;
16837;SDS011;19510;54.486;9.046;2023-07-31T05:55:32;4.63;;;1.77;;
16837;SDS011;19510;54.486;9.046;2023-07-31T05:57:58;8.32;;;1.80;;
16837;SDS011;19510;54.486;9.046;2023-07-31T06:00:24;4.78;;;1.77;;
16837;SDS011;19510;54.486;9.046;2023-07-31T06:02:50;9.63;;;2.13;;
16837;SDS011;19510;54.486;9.046;2023-07-31T06:05:16;8.25;;;1.90;;
16837;SDS011;19510;54.486;9.046;2023-07-31T06:07:41;5.57;;;1.95;;
16837;SDS011;19510;54.486;9.046;2023-07-31T06:10:07;3.95;;;1.40;;
16837;SDS011;19510;54.486;9.046;2023-07-31T06:12:34;9.40;;;1.40;;
16837;SDS011;19510;54.486;9.046;2023-07-31T06:15:01;6.45;;;1.50;;
16837;SDS011;19510;54.486;9.046;2023-07-31T06:17:27;4.10;;;1.45;;
16837;SDS011;19510;54.486;9.046;2023-07-31T06:19:54;7.80;;;1.40;;
16837;SDS011;19510;54.486;9.046;2023-07-31T06:22:21;3.40;;;1.10;;
16837;SDS011;19510;54.486;9.046;2023-07-31T06:24:47;2.65;;;1.10;;
16837;SDS011;19510;54.486;9.046;2023-07-31T06:27:12;4.93;;;1.38;;
16837;SDS011;19510;54.486;9.046;2023-07-31T06:29:38;5.70;;;1.90;;
16837;SDS011;19510;54.486;9.046;2023-07-31T06:32:04;4.45;;;1.30;;
16837;SDS011;19510;54.486;9.046;2023-07-31T06:34:30;2.65;;;1.10;;
16837;SDS011;19510;54.486;9.046;2023-07-31T06:36:56;4.80;;;1.52;;
16837;SDS011;19510;54.486;9.046;2023-07-31T06:39:22;3.67;;;1.08;;
16837;SDS011;19510;54.486;9.046;2023-07-31T06:41:47;4.28;;;1.52;;
16837;SDS011;19510;54.486;9.046;2023-07-31T06:44:13;3.95;;;1.20;;
16837;SDS011;19510;54.486;9.046;2023-07-31T06:46:39;4.82;;;1.50;;
16837;SDS011;19510;54.486;9.046;2023-07-31T06:49:05;4.15;;;1.27;;
16837;SDS011;19510;54.486;9.046;2023-07-31T06:51:30;6.68;;;1.27;;
16837;SDS011;19510;54.486;9.046;2023-07-31T06:53:57;3.25;;;1.63;;
16837;SDS011;19510;54.486;9.046;2023-07-31T06:56:23;3.20;;;1.17;;
16837;SDS011;19510;54.486;9.046;2023-07-31T06:58:48;2.88;;;1.15;;
16837;SDS011;19510;54.486;9.046;2023-07-31T07:01:14;2.35;;;1.17;;
16837;SDS011;19510;54.486;9.046;2023-07-31T07:03:39;6.28;;;1.90;;
16837;SDS011;19510;54.486;9.046;2023-07-31T07:06:05;3.63;;;1.10;;
16837;SDS011;19510;54.486;9.046;2023-07-31T07:08:32;2.72;;;0.88;;
16837;SDS011;19510;54.486;9.046;2023-07-31T07:10:57;4.55;;;1.05;;
16837;SDS011;19510;54.486;9.046;2023-07-31T07:13:23;5.65;;;0.80;;
16837;SDS011;19510;54.486;9.046;2023-07-31T07:15:49;4.30;;;1.25;;
16837;SDS011;19510;54.486;9.046;2023-07-31T07:18:15;2.88;;;1.20;;
16837;SDS011;19510;54.486;9.046;2023-07-31T07:20:46;3.88;;;1.10;;
16837;SDS011;19510;54.486;9.046;2023-07-31T07:23:13;3.53;;;1.00;;
16837;SDS011;19510;54.486;9.046;2023-07-31T07:25:38;1.95;;;0.80;;
16837;SDS011;19510;54.486;9.046;2023-07-31T07:28:04;3.08;;;0.90;;
16837;SDS011;19510;54.486;9.046;2023-07-31T07:30:30;2.88;;;0.98;;
16837;SDS011;19510;54.486;9.046;2023-07-31T07:32:55;4.13;;;1.00;;
16837;SDS011;19510;54.486;9.046;2023-07-31T07:35:21;2.97;;;0.70;;
16837;SDS011;19510;54.486;9.046;2023-07-31T07:37:48;2.60;;;1.00;;
16837;SDS011;19510;54.486;9.046;2023-07-31T07:40:15;2.33;;;1.13;;
16837;SDS011;19510;54.486;9.046;2023-07-31T07:42:41;7.43;;;1.10;;
16837;SDS011;19510;54.486;9.046;2023-07-31T07:45:07;3.65;;;1.13;;
16837;SDS011;19510;54.486;9.046;2023-07-31T07:47:35;4.22;;;1.58;;
16837;SDS011;19510;54.486;9.046;2023-07-31T07:50:03;4.00;;;1.10;;
16837;SDS011;19510;54.486;9.046;2023-07-31T07:52:29;4.70;;;1.65;;
16837;SDS011;19510;54.486;9.046;2023-07-31T07:54:54;4.95;;;1.40;;
16837;SDS011;19510;54.486;9.046;2023-07-31T07:57:20;10.52;;;1.55;;
16837;SDS011;19510;54.486;9.046;2023-07-31T07:59:46;4.72;;;1.35;;
16837;SDS011;19510;54.486;9.046;2023-07-31T08:02:11;4.90;;;1.10;;
16837;SDS011;19510;54.486;9.046;2023-07-31T08:04:39;5.57;;;1.55;;
16837;SDS011;19510;54.486;9.046;2023-07-31T08:07:05;6.85;;;2.20;;
16837;SDS011;19510;54.486;9.046;2023-07-31T08:09:31;7.50;;;2.53;;
16837;SDS011;19510;54.486;9.046;2023-07-31T08:11:56;5.30;;;1.75;;
16837;SDS011;19510;54.486;9.046;2023-07-31T08:14:27;7.22;;;2.00;;
16837;SDS011;19510;54.486;9.046;2023-07-31T08:16:53;9.27;;;2.05;;
16837;SDS011;19510;54.486;9.046;2023-07-31T08:19:18;9.23;;;2.38;;
16837;SDS011;19510;54.486;9.046;2023-07-31T08:21:44;6.88;;;1.80;;
16837;SDS011;19510;54.486;9.046;2023-07-31T08:24:10;4.72;;;2.10;;
16837;SDS011;19510;54.486;9.046;2023-07-31T08:26:35;5.68;;;1.67;;
16837;SDS011;19510;54.486;9.046;2023-07-31T08:29:01;4.78;;;1.63;;
16837;SDS011;19510;54.486;9.046;2023-07-31T08:31:27;4.25;;;1.70;;
16837;SDS011;19510;54.486;9.046;2023-07-31T08:33:55;4.82;;;1.70;;
16837;SDS011;19510;54.486;9.046;2023-07-31T08:36:21;5.70;;;2.08;;
16837;SDS011;19510;54.486;9.046;2023-07-31T08:38:47;5.93;;;1.73;;
16837;SDS011;19510;54.486;9.046;2023-07-31T08:41:14;7.35;;;1.60;;
16837;SDS011;19510;54.486;9.046;2023-07-31T08:43:42;5.07;;;1.65;;
16837;SDS011;19510;54.486;9.046;2023-07-31T08:46:12;6.15;;;2.50;;
16837;SDS011;19510;54.486;9.046;2023-07-31T08:48:40;5.60;;;2.08;;
16837;SDS011;19510;54.486;9.046;2023-07-31T08:51:10;5.40;;;1.40;;
16837;SDS011;19510;54.486;9.046;2023-07-31T08:53:36;5.22;;;1.45;;
16837;SDS011;19510;54.486;9.046;2023-07-31T08:56:02;5.00;;;1.33;;
16837;SDS011;19510;54.486;9.046;2023-07-31T08:58:30;4.43;;;1.50;;
16837;SDS011;19510;54.486;9.046;2023-07-31T09:00:57;5.53;;;1.30;;
16837;SDS011;19510;54.486;9.046;2023-07-31T09:03:28;3.33;;;1.50;;
16837;SDS011;19510;54.486;9.046;2023-07-31T09:05:57;4.05;;;1.50;;
16837;SDS011;19510;54.486;9.046;2023-07-31T09:08:24;2.78;;;1.38;;
16837;SDS011;19510;54.486;9.046;2023-07-31T09:10:58;6.78;;;1.40;;
16837;SDS011;19510;54.486;9.046;2023-07-31T09:13:25;6.70;;;1.80;;
16837;SDS011;19510;54.486;9.046;2023-07-31T09:15:53;4.15;;;1.35;;
16837;SDS011;19510;54.486;9.046;2023-07-31T09:18:19;2.53;;;1.15;;
16837;SDS011;19510;54.486;9.046;2023-07-31T09:20:59;4.07;;;1.58;;
16837;SDS011;19510;54.486;9.046;2023-07-31T09:23:27;6.78;;;1.52;;
16837;SDS011;19510;54.486;9.046;2023-07-31T09:26:09;3.20;;;1.42;;
16837;SDS011;19510;54.486;9.046;2023-07-31T09:28:36;10.05;;;1.73;;
16837;SDS011;19510;54.486;9.046;2023-07-31T09:31:01;3.17;;;1.50;;
16837;SDS011;19510;54.486;9.046;2023-07-31T09:33:27;5.28;;;1.40;;
16837;SDS011;19510;54.486;9.046;2023-07-31T09:35:55;4.82;;;1.67;;
16837;SDS011;19510;54.486;9.046;2023-07-31T09:38:24;5.38;;;1.48;;
16837;SDS011;19510;54.486;9.046;2023-07-31T09:40:50;3.55;;;1.42;;
16837;SDS011;19510;54.486;9.046;2023-07-31T09:43:19;4.72;;;1.20;;
16837;SDS011;19510;54.486;9.046;2023-07-31T09:45:46;2.95;;;1.27;;
16837;SDS011;19510;54.486;9.046;2023-07-31T09:48:16;3.55;;;1.55;;
16837;SDS011;19510;54.486;9.046;2023-07-31T09:50:44;4.05;;;1.55;;
16837;SDS011;19510;54.486;9.046;2023-07-31T09:53:12;5.53;;;1.50;;
16837;SDS011;19510;54.486;9.046;2023-07-31T09:55:39;8.30;;;2.20;;
16837;SDS011;19510;54.486;9.046;2023-07-31T09:58:06;7.63;;;1.45;;
16837;SDS011;19510;54.486;9.046;2023-07-31T10:00:33;9.00;;;2.38;;
16837;SDS011;19510;54.486;9.046;2023-07-31T10:03:00;4.57;;;1.50;;
16837;SDS011;19510;54.486;9.046;2023-07-31T10:08:32;4.50;;;1.30;;
16837;SDS011;19510;54.486;9.046;2023-07-31T10:11:01;2.33;;;1.25;;
16837;SDS011;19510;54.486;9.046;2023-07-31T10:13:28;3.10;;;1.50;;
16837;SDS011;19510;54.486;9.046;2023-07-31T10:15:56;5.82;;;1.27;;
16837;SDS011;19510;54.486;9.046;2023-07-31T10:18:25;4.25;;;1.48;;
16837;SDS011;19510;54.486;9.046;2023-07-31T10:20:51;4.20;;;1.38;;
16837;SDS011;19510;54.486;9.046;2023-07-31T10:23:19;3.40;;;1.33;;
16837;SDS011;19510;54.486;9.046;2023-07-31T10:25:46;4.03;;;1.30;;
16837;SDS011;19510;54.486;9.046;2023-07-31T10:28:13;4.00;;;1.42;;
16837;SDS011;19510;54.486;9.046;2023-07-31T10:30:39;6.50;;;1.17;;
16837;SDS011;19510;54.486;9.046;2023-07-31T10:33:06;7.35;;;1.17;;
16837;SDS011;19510;54.486;9.046;2023-07-31T10:35:32;5.40;;;1.38;;
16837;SDS011;19510;54.486;9.046;2023-07-31T10:38:11;4.45;;;1.30;;
16837;SDS011;19510;54.486;9.046;2023-07-31T10:40:37;3.88;;;1.20;;
16837;SDS011;19510;54.486;9.046;2023-07-31T10:43:04;4.05;;;1.30;;
16837;SDS011;19510;54.486;9.046;2023-07-31T10:45:31;5.95;;;1.50;;
16837;SDS011;19510;54.486;9.046;2023-07-31T10:48:02;3.67;;;1.52;;
16837;SDS011;19510;54.486;9.046;2023-07-31T10:50:30;2.17;;;1.10;;
16837;SDS011;19510;54.486;9.046;2023-07-31T10:52:58;6.70;;;1.30;;
16837;SDS011;19510;54.486;9.046;2023-07-31T10:58:05;3.55;;;1.15;;
16837;SDS011;19510;54.486;9.046;2023-07-31T11:00:33;3.95;;;1.27;;
16837;SDS011;19510;54.486;9.046;2023-07-31T11:03:00;2.83;;;1.27;;
16837;SDS011;19510;54.486;9.046;2023-07-31T11:05:44;1.83;;;1.05;;
16837;SDS011;19510;54.486;9.046;2023-07-31T11:08:13;3.80;;;1.00;;
16837;SDS011;19510;54.486;9.046;2023-07-31T11:10:47;4.28;;;1.10;;
16837;SDS011;19510;54.486;9.046;2023-07-31T11:13:14;1.63;;;1.10;;
16837;SDS011;19510;54.486;9.046;2023-07-31T11:15:40;3.88;;;1.30;;
16837;SDS011;19510;54.486;9.046;2023-07-31T11:18:06;5.35;;;1.20;;
16837;SDS011;19510;54.486;9.046;2023-07-31T11:20:33;2.75;;;1.10;;
16837;SDS011;19510;54.486;9.046;2023-07-31T11:23:03;4.30;;;0.80;;
16837;SDS011;19510;54.486;9.046;2023-07-31T11:25:32;1.05;;;0.70;;
16837;SDS011;19510;54.486;9.046;2023-07-31T11:28:14;1.15;;;0.80;;
16837;SDS011;19510;54.486;9.046;2023-07-31T11:30:41;1.52;;;0.80;;
16837;SDS011;19510;54.486;9.046;2023-07-31T11:33:08;2.55;;;1.13;;
16837;SDS011;19510;54.486;9.046;2023-07-31T11:35:35;2.30;;;1.02;;
16837;SDS011;19510;54.486;9.046;2023-07-31T11:38:06;1.08;;;0.85;;
16837;SDS011;19510;54.486;9.046;2023-07-31T11:40:40;1.77;;;0.80;;
16837;SDS011;19510;54.486;9.046;2023-07-31T11:43:07;0.90;;;0.80;;
16837;SDS011;19510;54.486;9.046;2023-07-31T11:45:32;1.45;;;0.80;;
16837;SDS011;19510;54.486;9.046;2023-07-31T11:48:00;1.13;;;0.90;;
16837;SDS011;19510;54.486;9.046;2023-07-31T11:50:26;0.95;;;0.70;;
16837;SDS011;19510;54.486;9.046;2023-07-31T11:52:59;1.00;;;0.90;;
16837;SDS011;19510;54.486;9.046;2023-07-31T11:55:28;1.85;;;1.00;;
16837;SDS011;19510;54.486;9.046;2023-07-31T11:57:56;2.38;;;0.82;;
16837;SDS011;19510;54.486;9.046;2023-07-31T12:00:23;0.98;;;0.88;;
16837;SDS011;19510;54.486;9.046;2023-07-31T12:02:50;1.67;;;0.80;;
16837;SDS011;19510;54.486;9.046;2023-07-31T12:05:16;1.38;;;0.70;;
16837;SDS011;19510;54.486;9.046;2023-07-31T12:07:52;3.05;;;1.20;;
16837;SDS011;19510;54.486;9.046;2023-07-31T12:10:32;1.48;;;0.85;;
16837;SDS011;19510;54.486;9.046;2023-07-31T12:15:34;2.67;;;1.48;;
16837;SDS011;19510;54.486;9.046;2023-07-31T12:18:20;2.25;;;0.73;;
16837;SDS011;19510;54.486;9.046;2023-07-31T12:21:08;1.50;;;0.98;;
16837;SDS011;19510;54.486;9.046;2023-07-31T12:23:35;1.23;;;0.63;;
16837;SDS011;19510;54.486;9.046;2023-07-31T12:31:09;1.17;;;0.73;;
16837;SDS011;19510;54.486;9.046;2023-07-31T12:33:37;1.75;;;0.60;;
16837;SDS011;19510;54.486;9.046;2023-07-31T12:36:06;1.52;;;0.90;;
16837;SDS011;19510;54.486;9.046;2023-07-31T12:38:42;2.70;;;0.88;;
16837;SDS011;19510;54.486;9.046;2023-07-31T12:41:08;1.65;;;0.88;;
16837;SDS011;19510;54.486;9.046;2023-07-31T12:43:35;2.45;;;0.90;;
16837;SDS011;19510;54.486;9.046;2023-07-31T12:46:02;2.30;;;0.93;;
16837;SDS011;19510;54.486;9.046;2023-07-31T12:48:29;2.85;;;0.90;;
16837;SDS011;19510;54.486;9.046;2023-07-31T12:50:57;1.33;;;0.88;;
16837;SDS011;19510;54.486;9.046;2023-07-31T12:53:22;3.13;;;1.00;;
16837;SDS011;19510;54.486;9.046;2023-07-31T12:55:48;4.53;;;1.15;;
16837;SDS011;19510;54.486;9.046;2023-07-31T12:58:17;0.60;;;0.60;;
16837;SDS011;19510;54.486;9.046;2023-07-31T13:00:43;1.55;;;0.80;;
16837;SDS011;19510;54.486;9.046;2023-07-31T13:03:08;1.08;;;0.70;;
16837;SDS011;19510;54.486;9.046;2023-07-31T13:05:34;1.48;;;0.73;;
16837;SDS011;19510;54.486;9.046;2023-07-31T13:08:00;1.25;;;0.70;;
16837;SDS011;19510;54.486;9.046;2023-07-31T13:10:28;0.75;;;0.68;;
16837;SDS011;19510;54.486;9.046;2023-07-31T13:12:55;0.65;;;0.60;;
16837;SDS011;19510;54.486;9.046;2023-07-31T13:15:20;1.33;;;0.60;;
16837;SDS011;19510;54.486;9.046;2023-07-31T13:17:46;1.85;;;0.60;;
16837;SDS011;19510;54.486;9.046;2023-07-31T13:20:12;0.88;;;0.65;;
16837;SDS011;19510;54.486;9.046;2023-07-31T13:22:38;1.83;;;0.85;;
16837;SDS011;19510;54.486;9.046;2023-07-31T13:25:04;2.00;;;0.65;;
16837;SDS011;19510;54.486;9.046;2023-07-31T13:27:30;2.45;;;0.90;;
16837;SDS011;19510;54.486;9.046;2023-07-31T13:29:56;1.45;;;0.65;;
16837;SDS011;19510;54.486;9.046;2023-07-31T13:32:21;0.60;;;0.60;;
16837;SDS011;19510;54.486;9.046;2023-07-31T13:34:47;0.75;;;0.52;;
16837;SDS011;19510;54.486;9.046;2023-07-31T13:37:14;1.15;;;0.70;;
16837;SDS011;19510;54.486;9.046;2023-07-31T13:39:39;3.17;;;0.70;;
16837;SDS011;19510;54.486;9.046;2023-07-31T13:42:06;1.20;;;0.80;;
16837;SDS011;19510;54.486;9.046;2023-07-31T13:44:36;1.08;;;0.80;;
16837;SDS011;19510;54.486;9.046;2023-07-31T13:47:06;1.40;;;0.65;;
16837;SDS011;19510;54.486;9.046;2023-07-31T13:49:32;1.20;;;1.00;;
16837;SDS011;19510;54.486;9.046;2023-07-31T13:51:59;1.65;;;0.80;;
16837;SDS011;19510;54.486;9.046;2023-07-31T13:54:25;0.82;;;0.80;;
16837;SDS011;19510;54.486;9.046;2023-07-31T13:56:51;0.80;;;0.80;;
16837;SDS011;19510;54.486;9.046;2023-07-31T13:59:17;1.08;;;0.70;;
16837;SDS011;19510;54.486;9.046;2023-07-31T14:01:43;0.85;;;0.52;;
16837;SDS011;19510;54.486;9.046;2023-07-31T14:04:09;2.10;;;0.73;;
16837;SDS011;19510;54.486;9.046;2023-07-31T14:06:36;2.55;;;0.63;;
16837;SDS011;19510;54.486;9.046;2023-07-31T14:09:02;0.50;;;0.50;;
16837;SDS011;19510;54.486;9.046;2023-07-31T14:11:28;2.03;;;0.90;;
16837;SDS011;19510;54.486;9.046;2023-07-31T14:13:56;0.60;;;0.60;;
16837;SDS011;19510;54.486;9.046;2023-07-31T14:16:22;2.50;;;0.82;;
16837;SDS011;19510;54.486;9.046;2023-07-31T14:18:48;0.80;;;0.57;;
16837;SDS011;19510;54.486;9.046;2023-07-31T14:21:13;0.90;;;0.70;;
16837;SDS011;19510;54.486;9.046;2023-07-31T14:23:40;0.93;;;0.75;;
16837;SDS011;19510;54.486;9.046;2023-07-31T14:26:06;1.15;;;0.70;;
16837;SDS011;19510;54.486;9.046;2023-07-31T14:28:31;1.02;;;0.60;;
16837;SDS011;19510;54.486;9.046;2023-07-31T14:30:57;2.15;;;0.60;;
16837;SDS011;19510;54.486;9.046;2023-07-31T14:33:23;1.13;;;0.70;;
16837;SDS011;19510;54.486;9.046;2023-07-31T14:35:49;0.50;;;0.50;;
16837;SDS011;19510;54.486;9.046;2023-07-31T14:38:15;2.80;;;0.65;;
16837;SDS011;19510;54.486;9.046;2023-07-31T14:40:41;1.58;;;0.70;;
16837;SDS011;19510;54.486;9.046;2023-07-31T14:43:07;1.33;;;0.60;;
16837;SDS011;19510;54.486;9.046;2023-07-31T14:45:32;0.85;;;0.60;;
16837;SDS011;19510;54.486;9.046;2023-07-31T14:47:58;2.60;;;0.70;;
16837;SDS011;19510;54.486;9.046;2023-07-31T14:50:24;1.55;;;0.50;;
16837;SDS011;19510;54.486;9.046;2023-07-31T14:52:50;3.63;;;0.80;;
16837;SDS011;19510;54.486;9.046;2023-07-31T14:55:16;0.40;;;0.40;;
16837;SDS011;19510;54.486;9.046;2023-07-31T14:57:43;0.45;;;0.45;;
16837;SDS011;19510;54.486;9.046;2023-07-31T15:00:08;0.77;;;0.50;;
16837;SDS011;19510;54.486;9.046;2023-07-31T15:02:35;0.60;;;0.60;;
16837;SDS011;19510;54.486;9.046;2023-07-31T15:05:04;1.25;;;0.63;;